createdAt,value
2018-01-13T00:02:07.974Z,6.90
2018-01-13T00:04:35.493Z,6.90
2018-01-13T00:07:03.016Z,6.90
2018-01-13T00:09:30.490Z,6.90
2018-01-13T00:11:58.731Z,6.90
2018-01-13T00:14:26.227Z,6.90
2018-01-13T00:16:53.715Z,6.90
2018-01-13T00:19:21.198Z,6.80
2018-01-13T00:21:49.778Z,6.90
2018-01-13T00:24:17.348Z,6.80
2018-01-13T00:26:44.823Z,6.90
2018-01-13T00:29:12.395Z,6.80
2018-01-13T00:31:39.870Z,6.80
2018-01-13T00:34:08.152Z,6.80
2018-01-13T00:36:35.653Z,6.80
2018-01-13T00:39:03.130Z,6.80
2018-01-13T00:41:30.615Z,6.80
2018-01-13T00:43:58.126Z,6.80
2018-01-13T00:46:25.632Z,6.80
2018-01-13T00:48:53.103Z,6.80
2018-01-13T00:51:20.951Z,6.70
2018-01-13T00:53:48.451Z,6.70
2018-01-13T00:56:16.709Z,6.70
2018-01-13T00:58:44.284Z,6.70
2018-01-13T01:01:12.541Z,6.60
2018-01-13T01:03:40.014Z,6.60
2018-01-13T01:06:07.615Z,6.70
2018-01-13T01:08:35.095Z,6.60
2018-01-13T01:11:03.337Z,6.60
2018-01-13T01:13:30.834Z,6.60
2018-01-13T01:15:58.410Z,6.60
2018-01-13T01:18:25.887Z,6.60
2018-01-13T01:20:53.394Z,6.60
2018-01-13T01:23:20.875Z,6.50
2018-01-13T01:25:48.351Z,6.50
2018-01-13T01:28:15.863Z,6.50
2018-01-13T01:30:43.340Z,6.50
2018-01-13T01:33:10.820Z,6.50
2018-01-13T01:35:39.079Z,6.60
2018-01-13T01:38:06.566Z,6.60
2018-01-13T01:40:34.043Z,6.60
2018-01-13T01:43:02.304Z,6.70
2018-01-13T01:45:29.786Z,6.70
2018-01-13T01:47:57.362Z,6.70
2018-01-13T01:50:24.968Z,6.70
2018-01-13T01:52:52.539Z,6.70
2018-01-13T01:55:20.014Z,6.70
2018-01-13T01:57:47.583Z,6.70
2018-01-13T02:00:15.060Z,6.70
2018-01-13T02:02:42.534Z,6.70
2018-01-13T02:05:10.030Z,6.80
2018-01-13T02:07:37.531Z,6.80
2018-01-13T02:10:05.007Z,6.80
2018-01-13T02:12:32.510Z,6.80
2018-01-13T02:15:00.079Z,6.80
2018-01-13T02:17:27.551Z,6.90
2018-01-13T02:19:55.083Z,6.90
2018-01-13T02:22:22.654Z,6.90
2018-01-13T02:24:50.127Z,6.90
2018-01-13T02:27:17.714Z,6.90
2018-01-13T02:29:45.997Z,6.90
2018-01-13T02:32:13.471Z,6.90
2018-01-13T02:34:41.735Z,6.90
2018-01-13T02:37:09.251Z,6.90
2018-01-13T02:39:36.731Z,6.90
2018-01-13T02:42:04.293Z,6.90
2018-01-13T02:44:31.869Z,6.90
2018-01-13T02:46:59.386Z,6.90
2018-01-13T02:49:26.891Z,6.90
2018-01-13T02:51:55.135Z,6.90
2018-01-13T02:54:22.649Z,6.90
2018-01-13T02:56:50.887Z,6.90
2018-01-13T02:59:18.366Z,6.90
2018-01-13T03:01:45.854Z,7.00
2018-01-13T03:04:13.338Z,7.00
2018-01-13T03:06:40.832Z,6.90
2018-01-13T03:09:08.370Z,6.90
2018-01-13T03:11:35.850Z,6.90
2018-01-13T03:14:03.414Z,6.90
2018-01-13T03:16:30.887Z,6.90
2018-01-13T03:18:58.391Z,6.90
2018-01-13T03:21:25.867Z,6.90
2018-01-13T03:23:53.342Z,6.90
2018-01-13T03:26:20.835Z,6.90
2018-01-13T03:28:48.779Z,6.90
2018-01-13T03:31:16.271Z,6.90
2018-01-13T03:33:43.750Z,6.90
2018-01-13T03:36:11.259Z,6.90
2018-01-13T03:38:38.863Z,6.90
2018-01-13T03:41:06.342Z,6.90
2018-01-13T03:43:33.848Z,6.90
2018-01-13T03:46:01.327Z,6.90
2018-01-13T03:48:28.815Z,6.90
2018-01-13T03:50:56.314Z,7.00
2018-01-13T03:53:23.791Z,6.90
2018-01-13T03:55:51.322Z,7.00
2018-01-13T03:58:18.900Z,7.00
2018-01-13T04:00:47.139Z,7.00
2018-01-13T04:03:14.654Z,7.00
2018-01-13T04:05:42.978Z,7.00
2018-01-13T04:08:10.471Z,7.00
2018-01-13T04:10:37.947Z,7.10
2018-01-13T04:13:05.490Z,7.10
2018-01-13T04:15:33.061Z,7.10
2018-01-13T04:18:00.551Z,7.10
2018-01-13T04:20:28.075Z,7.10
2018-01-13T04:22:55.642Z,7.10
2018-01-13T04:25:23.219Z,7.10
2018-01-13T04:27:50.755Z,7.10
2018-01-13T04:30:18.235Z,7.10
2018-01-13T04:32:45.730Z,7.10
2018-01-13T04:35:13.206Z,7.00
2018-01-13T04:37:41.482Z,7.00
2018-01-13T04:40:08.975Z,7.00
2018-01-13T04:42:37.210Z,7.10
2018-01-13T04:45:04.720Z,7.10
2018-01-13T04:47:32.194Z,7.10
2018-01-13T04:50:00.434Z,7.10
2018-01-13T04:52:27.921Z,7.10
2018-01-13T04:54:55.398Z,7.10
2018-01-13T04:57:23.290Z,7.10
2018-01-13T04:59:50.865Z,7.10
2018-01-13T05:02:18.355Z,7.10
2018-01-13T05:04:46.607Z,7.10
2018-01-13T05:07:14.095Z,7.10
2018-01-13T05:09:41.587Z,7.00
2018-01-13T05:12:09.831Z,7.00
2018-01-13T05:14:37.307Z,7.00
2018-01-13T05:17:04.794Z,7.00
2018-01-13T05:19:32.274Z,7.10
2018-01-13T05:22:00.548Z,7.10
2018-01-13T05:24:28.118Z,7.00
2018-01-13T05:26:55.607Z,7.10
2018-01-13T05:29:23.886Z,7.10
2018-01-13T05:31:51.362Z,7.10
2018-01-13T05:34:19.639Z,7.10
2018-01-13T05:36:47.211Z,7.10
2018-01-13T05:39:14.691Z,7.10
2018-01-13T05:41:42.251Z,7.10
2018-01-13T05:44:09.756Z,7.10
2018-01-13T05:46:37.606Z,7.20
2018-01-13T05:49:05.594Z,7.10
2018-01-13T05:51:33.071Z,7.10
2018-01-13T05:54:00.631Z,7.10
2018-01-13T05:56:28.107Z,7.20
2018-01-13T05:58:56.370Z,7.20
2018-01-13T06:01:23.843Z,7.10
2018-01-13T06:03:51.319Z,7.20
2018-01-13T06:06:20.314Z,7.10
2018-01-13T06:08:47.787Z,7.10
2018-01-13T06:11:15.279Z,7.20
2018-01-13T06:13:42.755Z,7.20
2018-01-13T06:16:11.034Z,7.10
2018-01-13T06:18:38.534Z,7.10
2018-01-13T06:21:06.106Z,7.10
2018-01-13T06:23:33.603Z,7.10
2018-01-13T06:26:01.083Z,7.10
2018-01-13T06:28:28.586Z,7.10
2018-01-13T06:30:56.086Z,7.20
2018-01-13T06:33:23.658Z,7.20
2018-01-13T06:35:51.146Z,7.10
2018-01-13T06:38:18.666Z,7.10
2018-01-13T06:40:46.147Z,7.10
2018-01-13T06:43:14.407Z,7.20
2018-01-13T06:45:41.891Z,7.10
2018-01-13T06:48:09.466Z,7.20
2018-01-13T06:50:36.943Z,7.10
2018-01-13T06:53:04.519Z,7.10
2018-01-13T06:55:32.778Z,7.10
2018-01-13T06:58:00.275Z,7.10
2018-01-13T07:00:27.874Z,7.10
2018-01-13T07:02:55.446Z,7.10
2018-01-13T07:05:22.923Z,7.10
2018-01-13T07:07:50.415Z,7.10
2018-01-13T07:10:17.890Z,7.10
2018-01-13T07:12:45.399Z,7.10
2018-01-13T07:15:12.871Z,7.10
2018-01-13T07:17:40.443Z,7.10
2018-01-13T07:20:08.015Z,7.10
2018-01-13T07:22:35.503Z,7.10
2018-01-13T07:25:03.763Z,7.10
2018-01-13T07:27:31.346Z,7.10
2018-01-13T07:29:58.830Z,7.10
2018-01-13T07:32:27.131Z,7.00
2018-01-13T07:34:55.398Z,7.00
2018-01-13T07:37:22.899Z,7.00
2018-01-13T07:39:50.383Z,7.00
2018-01-13T07:42:17.875Z,7.10
2018-01-13T07:44:45.364Z,7.30
2018-01-13T07:47:12.838Z,7.30
2018-01-13T07:49:40.326Z,7.20
2018-01-13T07:52:08.633Z,7.10
2018-01-13T07:54:36.174Z,7.10
2018-01-13T07:57:03.654Z,7.10
2018-01-13T07:59:31.906Z,7.00
2018-01-13T08:01:59.389Z,7.00
2018-01-13T08:04:27.005Z,7.00
2018-01-13T08:06:54.578Z,7.00
2018-01-13T08:09:22.055Z,6.90
2018-01-13T08:11:49.546Z,6.90
2018-01-13T08:14:17.027Z,6.90
2018-01-13T08:16:44.527Z,6.90
2018-01-13T08:19:12.091Z,6.90
2018-01-13T08:21:39.602Z,7.00
2018-01-13T08:24:07.854Z,7.00
2018-01-13T08:26:35.332Z,7.00
2018-01-13T08:29:02.996Z,6.90
2018-01-13T08:31:30.511Z,6.80
2018-01-13T08:33:58.010Z,6.90
2018-01-13T08:36:25.506Z,6.90
2018-01-13T08:38:53.963Z,6.80
2018-01-13T08:41:21.458Z,6.80
2018-01-13T08:43:48.981Z,6.80
2018-01-13T08:46:17.214Z,6.70
2018-01-13T08:48:44.713Z,6.70
2018-01-13T08:51:12.191Z,6.70
2018-01-13T08:53:39.701Z,6.60
2018-01-13T08:56:07.942Z,6.50
2018-01-13T08:58:35.414Z,6.50
2018-01-13T09:01:02.915Z,6.50
2018-01-13T09:03:30.381Z,6.50
2018-01-13T09:05:58.230Z,6.50
2018-01-13T09:08:25.738Z,6.40
2018-01-13T09:10:53.210Z,6.50
2018-01-13T09:13:20.777Z,6.50
2018-01-13T09:15:48.350Z,6.50
2018-01-13T09:18:15.923Z,6.40
2018-01-13T09:20:43.522Z,6.50
2018-01-13T09:23:11.003Z,6.50
2018-01-13T09:25:38.486Z,6.50
2018-01-13T09:28:05.969Z,6.50
2018-01-13T09:30:33.462Z,6.50
2018-01-13T09:33:01.703Z,6.50
2018-01-13T09:35:29.182Z,6.50
2018-01-13T09:37:56.678Z,6.60
2018-01-13T09:40:24.245Z,6.50
2018-01-13T09:42:51.819Z,6.60
2018-01-13T09:45:19.457Z,6.60
2018-01-13T09:47:46.963Z,6.60
2018-01-13T09:50:14.442Z,6.60
2018-01-13T09:52:42.758Z,6.50
2018-01-13T09:55:10.246Z,6.50
2018-01-13T09:57:37.722Z,6.50
2018-01-13T10:00:05.234Z,6.40
2018-01-13T10:02:32.808Z,6.50
2018-01-13T10:05:00.282Z,6.50
2018-01-13T10:07:28.876Z,6.70
2018-01-13T10:09:57.193Z,6.80
2018-01-13T10:12:25.684Z,6.80
2018-01-13T10:16:42.294Z,7.10
2018-01-13T10:19:10.819Z,7.30
2018-01-13T10:21:38.515Z,7.30
2018-01-13T10:24:06.061Z,7.30
2018-01-13T10:26:34.431Z,7.10
2018-01-13T10:29:02.718Z,7.20
2018-01-13T10:31:30.210Z,7.20
2018-01-13T10:33:58.475Z,7.20
2018-01-13T10:36:26.058Z,7.20
2018-01-13T10:38:54.306Z,7.10
2018-01-13T10:41:21.783Z,7.10
2018-01-13T10:43:49.268Z,7.10
2018-01-13T10:46:16.842Z,7.10
2018-01-13T10:48:44.321Z,7.20
2018-01-13T10:51:11.814Z,7.20
2018-01-13T10:53:40.074Z,7.30
2018-01-13T10:56:07.682Z,7.30
2018-01-13T10:58:35.942Z,7.30
2018-01-13T11:01:03.814Z,7.30
2018-01-13T11:03:31.424Z,7.50
2018-01-13T11:05:58.906Z,7.50
2018-01-13T11:08:26.567Z,7.50
2018-01-13T11:10:54.103Z,7.50
2018-01-13T11:13:21.590Z,7.60
2018-01-13T11:15:49.838Z,7.60
2018-01-13T11:18:17.320Z,7.50
2018-01-13T11:20:44.918Z,7.70
2018-01-13T11:23:12.484Z,7.70
2018-01-13T11:25:40.054Z,7.80
2018-01-13T11:28:07.639Z,7.70
2018-01-13T11:30:35.191Z,7.70
2018-01-13T11:33:02.682Z,7.70
2018-01-13T11:35:30.930Z,8.00
2018-01-13T11:37:58.643Z,7.90
2018-01-13T11:40:27.104Z,8.00
2018-01-13T11:42:54.567Z,8.00
2018-01-13T11:45:22.710Z,8.10
2018-01-13T11:47:50.249Z,8.20
2018-01-13T11:50:17.981Z,8.20
2018-01-13T11:52:45.613Z,8.20
2018-01-13T11:55:13.922Z,8.10
2018-01-13T11:57:41.405Z,8.10
2018-01-13T12:00:08.874Z,8.10
2018-01-13T12:02:36.350Z,8.10
2018-01-13T12:05:03.831Z,7.90
2018-01-13T12:07:31.297Z,8.10
2018-01-13T12:09:58.806Z,8.00
2018-01-13T12:12:26.278Z,8.00
2018-01-13T12:14:53.850Z,7.90
2018-01-13T12:17:21.326Z,7.90
2018-01-13T12:19:48.927Z,7.90
2018-01-13T12:22:16.766Z,7.90
2018-01-13T12:24:44.351Z,7.90
2018-01-13T12:27:11.911Z,7.90
2018-01-13T12:29:39.390Z,7.80
2018-01-13T12:32:06.858Z,7.90
2018-01-13T12:34:34.630Z,8.00
2018-01-13T12:37:02.206Z,8.00
2018-01-13T12:39:29.682Z,7.90
2018-01-13T12:41:57.242Z,7.90
2018-01-13T12:44:24.713Z,7.90
2018-01-13T12:46:52.498Z,8.00
2018-01-13T12:49:19.970Z,7.90
2018-01-13T12:51:48.207Z,7.80
2018-01-13T12:54:15.721Z,7.90
2018-01-13T12:56:43.954Z,7.80
2018-01-13T12:59:11.439Z,7.80
2018-01-13T13:01:38.910Z,7.70
2018-01-13T13:04:06.375Z,7.60
2018-01-13T13:06:33.854Z,7.70
2018-01-13T13:09:01.604Z,7.60
2018-01-13T13:11:29.093Z,7.50
2018-01-13T13:13:56.604Z,7.60
2018-01-13T13:16:24.069Z,7.60
2018-01-13T13:18:51.546Z,7.60
2018-01-13T13:21:19.118Z,7.60
2018-01-13T13:23:46.598Z,7.70
2018-01-13T13:26:14.066Z,7.70
2018-01-13T13:28:41.530Z,7.80
2018-01-13T13:31:09.010Z,7.80
2018-01-13T13:33:37.323Z,8.00
2018-01-13T13:36:04.896Z,8.00
2018-01-13T13:38:32.374Z,8.10
2018-01-13T13:40:59.938Z,8.10
2018-01-13T13:43:27.423Z,8.10
2018-01-13T13:45:54.910Z,8.10
2018-01-13T13:48:22.402Z,8.10
2018-01-13T13:50:51.378Z,8.00
2018-01-13T13:53:18.846Z,8.00
2018-01-13T13:55:46.334Z,7.90
2018-01-13T13:58:13.798Z,7.90
2018-01-13T14:00:41.394Z,7.80
2018-01-13T14:03:08.862Z,7.90
2018-01-13T14:05:36.330Z,7.90
2018-01-13T14:08:03.810Z,7.90
2018-01-13T14:10:33.944Z,7.80
2018-01-13T14:13:01.594Z,7.70
2018-01-13T14:15:29.072Z,7.60
2018-01-13T14:17:56.553Z,7.40
2018-01-13T14:20:24.030Z,7.40
2018-01-13T14:22:51.597Z,7.30
2018-01-13T14:25:19.063Z,7.30
2018-01-13T14:27:47.314Z,7.20
2018-01-13T14:30:14.781Z,7.10
2018-01-13T14:32:42.302Z,7.10
2018-01-13T14:35:09.766Z,7.10
2018-01-13T14:37:38.000Z,7.00
2018-01-13T14:40:05.530Z,7.00
2018-01-13T14:42:33.406Z,6.90
2018-01-13T14:45:00.986Z,6.90
2018-01-13T14:47:28.558Z,6.90
2018-01-13T14:49:56.164Z,6.90
2018-01-13T14:52:23.674Z,6.90
2018-01-13T14:54:51.205Z,6.90
2018-01-13T14:57:18.776Z,6.90
2018-01-13T14:59:46.317Z,7.00
2018-01-13T15:02:13.785Z,7.00
2018-01-13T15:04:41.355Z,7.00
2018-01-13T15:07:08.821Z,7.00
2018-01-13T15:09:36.698Z,7.10
2018-01-13T15:12:04.174Z,7.00
2018-01-13T15:14:31.687Z,7.10
2018-01-13T15:16:59.948Z,7.00
2018-01-13T15:19:28.259Z,7.00
2018-01-13T15:21:55.752Z,7.00
2018-01-13T15:24:23.230Z,7.00
2018-01-13T15:26:50.769Z,6.90
2018-01-13T15:29:18.341Z,7.00
2018-01-13T15:31:46.593Z,6.80
2018-01-13T15:34:14.090Z,6.80
2018-01-13T15:36:42.355Z,6.80
2018-01-13T15:39:09.826Z,6.80
2018-01-13T15:41:37.325Z,6.80
2018-01-13T15:44:05.563Z,6.70
2018-01-13T15:46:33.062Z,6.70
2018-01-13T15:49:01.353Z,6.70
2018-01-13T15:51:29.595Z,6.70
2018-01-13T15:53:57.342Z,6.70
2018-01-13T15:56:24.846Z,6.60
2018-01-13T15:58:52.391Z,6.60
2018-01-13T16:01:19.918Z,6.60
2018-01-13T16:03:47.413Z,6.60
2018-01-13T16:06:15.691Z,6.60
2018-01-13T16:08:43.172Z,6.60
2018-01-13T16:11:11.433Z,6.50
2018-01-13T16:13:38.952Z,6.50
2018-01-13T16:16:06.795Z,6.50
2018-01-13T16:18:34.270Z,6.50
2018-01-13T16:21:01.746Z,6.40
2018-01-13T16:23:30.172Z,6.50
2018-01-13T16:25:58.485Z,6.60
2018-01-13T16:28:25.962Z,6.50
2018-01-13T16:30:53.434Z,6.60
2018-01-13T16:33:21.265Z,6.50
2018-01-13T16:35:48.839Z,6.50
2018-01-13T16:38:16.411Z,6.50
2018-01-13T16:40:43.898Z,6.50
2018-01-13T16:43:11.413Z,6.50
2018-01-13T16:45:38.990Z,6.50
2018-01-13T16:48:06.565Z,6.50
2018-01-13T16:50:34.058Z,6.50
2018-01-13T16:53:02.302Z,6.50
2018-01-13T16:55:29.783Z,6.50
2018-01-13T16:57:57.362Z,6.50
2018-01-13T17:00:24.835Z,6.50
2018-01-13T17:02:52.314Z,6.50
2018-01-13T17:05:20.589Z,6.50
2018-01-13T17:07:48.854Z,6.60
2018-01-13T17:10:16.327Z,6.50
2018-01-13T17:12:43.803Z,6.60
2018-01-13T17:15:11.282Z,6.60
2018-01-13T17:17:38.862Z,6.60
2018-01-13T17:20:06.349Z,6.50
2018-01-13T17:22:33.856Z,6.50
2018-01-13T17:25:01.346Z,6.50
2018-01-13T17:27:28.817Z,6.50
2018-01-13T17:29:56.310Z,6.50
2018-01-13T17:32:23.815Z,6.50
2018-01-13T17:34:51.290Z,6.50
2018-01-13T17:37:18.834Z,6.50
2018-01-13T17:39:46.315Z,6.60
2018-01-13T17:42:14.579Z,6.60
2018-01-13T17:44:42.162Z,6.60
2018-01-13T17:47:09.630Z,6.50
2018-01-13T17:49:37.114Z,6.50
2018-01-13T17:52:05.350Z,6.50
2018-01-13T17:54:32.833Z,6.50
2018-01-13T17:57:00.363Z,6.60
2018-01-13T17:59:27.863Z,6.70
2018-01-13T18:01:55.702Z,6.90
2018-01-13T18:04:23.246Z,6.90
2018-01-13T18:06:50.740Z,6.90
2018-01-13T18:09:18.995Z,6.70
2018-01-13T18:11:46.479Z,6.70
2018-01-13T18:14:13.956Z,6.70
2018-01-13T18:16:41.442Z,6.70
2018-01-13T18:19:09.702Z,6.70
2018-01-13T18:21:37.288Z,6.70
2018-01-13T18:24:04.781Z,6.80
2018-01-13T18:26:32.354Z,6.80
2018-01-13T18:28:59.854Z,6.70
2018-01-13T18:31:27.395Z,6.70
2018-01-13T18:33:54.899Z,6.70
2018-01-13T18:36:22.381Z,6.70
2018-01-13T18:38:49.854Z,6.70
2018-01-13T18:41:17.354Z,6.70
2018-01-13T18:43:44.846Z,6.70
2018-01-13T18:46:12.334Z,6.70
2018-01-13T18:48:39.810Z,6.70
2018-01-13T18:51:07.290Z,6.70
2018-01-13T18:53:34.832Z,6.70
2018-01-13T18:56:02.402Z,6.70
2018-01-13T18:58:30.242Z,6.70
2018-01-13T19:00:57.718Z,6.70
2018-01-13T19:03:25.196Z,6.70
2018-01-13T19:05:52.750Z,6.70
2018-01-13T19:08:20.334Z,6.60
2018-01-13T19:10:47.822Z,6.70
2018-01-13T19:13:16.062Z,6.70
2018-01-13T19:15:43.551Z,6.70
2018-01-13T19:18:11.022Z,6.80
2018-01-13T19:20:38.490Z,6.80
2018-01-13T19:23:05.974Z,6.70
2018-01-13T19:25:33.454Z,6.70
2018-01-13T19:28:00.951Z,6.70
2018-01-13T19:30:28.497Z,6.70
2018-01-13T19:32:56.754Z,6.70
2018-01-13T19:35:24.226Z,6.70
2018-01-13T19:37:51.705Z,6.70
2018-01-13T19:40:19.211Z,6.70
2018-01-13T19:42:46.753Z,6.70
2018-01-13T19:45:14.242Z,6.70
2018-01-13T19:47:42.482Z,6.70
2018-01-13T19:50:09.954Z,6.70
2018-01-13T19:52:37.446Z,6.70
2018-01-13T19:55:05.024Z,6.70
2018-01-13T19:57:32.567Z,6.70
2018-01-13T20:00:00.041Z,6.70
2018-01-13T20:02:27.563Z,6.70
2018-01-13T20:04:55.814Z,6.70
2018-01-13T20:07:23.411Z,6.70
2018-01-13T20:09:51.666Z,6.60
2018-01-13T20:12:19.262Z,6.60
2018-01-13T20:14:46.746Z,6.60
2018-01-13T20:17:15.022Z,6.60
2018-01-13T20:19:42.515Z,6.60
2018-01-13T20:22:10.760Z,6.60
2018-01-13T20:24:38.247Z,6.60
2018-01-13T20:27:05.734Z,6.60
2018-01-13T20:29:33.970Z,6.60
2018-01-13T20:32:01.517Z,6.60
2018-01-13T20:34:28.994Z,6.50
2018-01-13T20:36:56.514Z,6.60
2018-01-13T20:39:24.018Z,6.60
2018-01-13T20:41:51.558Z,6.70
2018-01-13T20:44:19.126Z,6.70
2018-01-13T20:46:46.611Z,6.60
2018-01-13T20:49:14.176Z,6.60
2018-01-13T20:51:41.651Z,6.60
2018-01-13T20:54:09.222Z,6.50
2018-01-13T20:56:36.726Z,6.50
2018-01-13T20:59:04.206Z,6.50
2018-01-13T21:01:31.734Z,6.50
2018-01-13T21:04:00.050Z,6.50
2018-01-13T21:06:27.620Z,6.50
2018-01-13T21:08:55.194Z,6.40
2018-01-13T21:11:22.765Z,6.40
2018-01-13T21:13:51.020Z,6.40
2018-01-13T21:16:18.606Z,6.40
2018-01-13T21:18:46.883Z,6.50
2018-01-13T21:21:14.397Z,6.50
2018-01-13T21:23:41.971Z,6.40
2018-01-13T21:26:09.454Z,6.40
2018-01-13T21:28:37.010Z,6.40
2018-01-13T21:31:04.503Z,6.40
2018-01-13T21:33:31.979Z,6.40
2018-01-13T21:35:59.462Z,6.40
2018-01-13T21:38:26.938Z,6.40
2018-01-13T21:40:54.528Z,6.40
2018-01-13T21:43:22.009Z,6.40
2018-01-13T21:45:50.286Z,6.40
2018-01-13T21:48:17.774Z,6.40
2018-01-13T21:50:45.246Z,6.40
2018-01-13T21:53:13.506Z,6.40
2018-01-13T21:55:40.977Z,6.40
2018-01-13T21:58:08.554Z,6.40
2018-01-13T22:00:36.035Z,6.40
2018-01-13T22:03:03.531Z,6.40
2018-01-13T22:05:31.078Z,6.40
2018-01-13T22:07:58.779Z,6.40
2018-01-13T22:10:26.270Z,6.40
2018-01-13T22:12:53.826Z,6.30
2018-01-13T22:15:21.318Z,6.40
2018-01-13T22:17:48.839Z,6.30
2018-01-13T22:20:17.079Z,6.40
2018-01-13T22:22:44.590Z,6.40
2018-01-13T22:25:12.062Z,6.30
2018-01-13T22:27:39.563Z,6.30
2018-01-13T22:30:07.034Z,6.30
2018-01-13T22:32:34.506Z,6.30
2018-01-13T22:35:02.002Z,6.30
2018-01-13T22:37:29.485Z,6.30
2018-01-13T22:39:57.287Z,6.30
2018-01-13T22:42:24.782Z,6.30
2018-01-13T22:44:53.017Z,6.20
2018-01-13T22:47:20.502Z,6.30
2018-01-13T22:49:48.091Z,6.20
2018-01-13T22:52:15.658Z,6.20
2018-01-13T22:54:43.130Z,6.20
2018-01-13T22:57:10.915Z,6.20
2018-01-13T22:59:38.387Z,6.20
2018-01-13T23:02:06.630Z,6.10
2018-01-13T23:04:34.109Z,6.10
2018-01-13T23:07:01.591Z,6.20
2018-01-13T23:09:29.074Z,6.20
2018-01-13T23:11:56.546Z,6.10
2018-01-13T23:14:24.810Z,6.10
2018-01-13T23:16:52.290Z,6.10
2018-01-13T23:19:19.763Z,6.10
2018-01-13T23:21:47.342Z,6.10
2018-01-13T23:24:14.820Z,6.10
2018-01-13T23:26:42.387Z,6.10
2018-01-13T23:29:09.858Z,6.10
2018-01-13T23:31:37.351Z,6.10
2018-01-13T23:34:05.588Z,6.10
2018-01-13T23:36:33.081Z,6.10
2018-01-13T23:39:00.695Z,6.10
2018-01-13T23:41:28.170Z,6.10
2018-01-13T23:43:55.654Z,6.00
2018-01-13T23:46:23.130Z,6.00
2018-01-13T23:48:50.674Z,6.00
2018-01-13T23:51:18.150Z,6.10
2018-01-13T23:53:45.681Z,6.10
2018-01-13T23:56:13.170Z,6.10
2018-01-13T23:58:41.442Z,6.10
